sensor_id;sensor_type;location;lat;lon;timestamp;P1;durP1;ratioP1;P2;durP2;ratioP2
70420;SDS011;57848;51.938;15.520;2022-10-17T00:01:54;12.67;;;6.17;;
70420;SDS011;57848;51.938;15.520;2022-10-17T00:04:19;13.77;;;5.87;;
70420;SDS011;57848;51.938;15.520;2022-10-17T00:06:44;12.07;;;5.87;;
70420;SDS011;57848;51.938;15.520;2022-10-17T00:09:10;12.15;;;5.95;;
70420;SDS011;57848;51.938;15.520;2022-10-17T00:11:35;13.83;;;7.73;;
70420;SDS011;57848;51.938;15.520;2022-10-17T00:14:00;14.43;;;6.73;;
70420;SDS011;57848;51.938;15.520;2022-10-17T00:16:28;15.90;;;7.60;;
70420;SDS011;57848;51.938;15.520;2022-10-17T00:18:58;12.88;;;7.45;;
70420;SDS011;57848;51.938;15.520;2022-10-17T00:21:24;14.07;;;7.80;;
70420;SDS011;57848;51.938;15.520;2022-10-17T00:23:52;13.73;;;8.10;;
70420;SDS011;57848;51.938;15.520;2022-10-17T00:26:18;14.90;;;7.53;;
70420;SDS011;57848;51.938;15.520;2022-10-17T00:28:45;16.05;;;8.10;;
70420;SDS011;57848;51.938;15.520;2022-10-17T00:31:11;16.83;;;8.75;;
70420;SDS011;57848;51.938;15.520;2022-10-17T00:33:37;15.87;;;8.87;;
70420;SDS011;57848;51.938;15.520;2022-10-17T00:36:16;17.63;;;9.48;;
70420;SDS011;57848;51.938;15.520;2022-10-17T00:38:44;16.65;;;8.75;;
70420;SDS011;57848;51.938;15.520;2022-10-17T00:41:12;14.70;;;8.63;;
70420;SDS011;57848;51.938;15.520;2022-10-17T00:43:52;16.07;;;8.27;;
70420;SDS011;57848;51.938;15.520;2022-10-17T00:46:18;14.52;;;8.23;;
70420;SDS011;57848;51.938;15.520;2022-10-17T00:48:45;16.83;;;8.88;;
70420;SDS011;57848;51.938;15.520;2022-10-17T00:51:11;15.05;;;7.57;;
70420;SDS011;57848;51.938;15.520;2022-10-17T00:53:36;15.40;;;8.03;;
70420;SDS011;57848;51.938;15.520;2022-10-17T00:56:03;18.20;;;8.30;;
70420;SDS011;57848;51.938;15.520;2022-10-17T00:58:29;13.30;;;7.13;;
70420;SDS011;57848;51.938;15.520;2022-10-17T01:00:54;13.17;;;7.07;;
70420;SDS011;57848;51.938;15.520;2022-10-17T01:03:19;13.30;;;6.83;;
70420;SDS011;57848;51.938;15.520;2022-10-17T01:05:45;15.40;;;7.17;;
70420;SDS011;57848;51.938;15.520;2022-10-17T01:08:10;14.27;;;7.67;;
70420;SDS011;57848;51.938;15.520;2022-10-17T01:10:42;12.68;;;6.75;;
70420;SDS011;57848;51.938;15.520;2022-10-17T01:13:21;15.43;;;7.50;;
70420;SDS011;57848;51.938;15.520;2022-10-17T01:15:58;15.35;;;8.30;;
70420;SDS011;57848;51.938;15.520;2022-10-17T01:21:27;14.55;;;7.63;;
70420;SDS011;57848;51.938;15.520;2022-10-17T01:24:04;13.32;;;7.85;;
70420;SDS011;57848;51.938;15.520;2022-10-17T01:29:14;12.43;;;6.82;;
70420;SDS011;57848;51.938;15.520;2022-10-17T01:31:51;13.57;;;7.33;;
70420;SDS011;57848;51.938;15.520;2022-10-17T01:34:28;15.18;;;7.20;;
70420;SDS011;57848;51.938;15.520;2022-10-17T01:37:03;15.05;;;7.38;;
70420;SDS011;57848;51.938;15.520;2022-10-17T01:44:55;14.50;;;7.77;;
70420;SDS011;57848;51.938;15.520;2022-10-17T01:47:25;15.45;;;7.20;;
70420;SDS011;57848;51.938;15.520;2022-10-17T01:49:54;13.82;;;7.40;;
70420;SDS011;57848;51.938;15.520;2022-10-17T01:52:25;14.32;;;7.53;;
70420;SDS011;57848;51.938;15.520;2022-10-17T01:54:55;17.60;;;7.38;;
70420;SDS011;57848;51.938;15.520;2022-10-17T01:57:29;14.00;;;7.10;;
70420;SDS011;57848;51.938;15.520;2022-10-17T01:59:58;12.82;;;7.50;;
70420;SDS011;57848;51.938;15.520;2022-10-17T02:02:24;13.93;;;6.93;;
70420;SDS011;57848;51.938;15.520;2022-10-17T02:04:50;15.40;;;7.82;;
70420;SDS011;57848;51.938;15.520;2022-10-17T02:07:17;13.10;;;7.68;;
70420;SDS011;57848;51.938;15.520;2022-10-17T02:09:43;19.10;;;8.40;;
70420;SDS011;57848;51.938;15.520;2022-10-17T02:15:09;16.63;;;8.20;;
70420;SDS011;57848;51.938;15.520;2022-10-17T02:20:52;18.45;;;8.20;;
70420;SDS011;57848;51.938;15.520;2022-10-17T02:24:09;15.93;;;8.60;;
70420;SDS011;57848;51.938;15.520;2022-10-17T02:26:24;17.37;;;8.70;;
70420;SDS011;57848;51.938;15.520;2022-10-17T02:29:06;15.38;;;8.90;;
70420;SDS011;57848;51.938;15.520;2022-10-17T02:31:45;16.25;;;8.88;;
70420;SDS011;57848;51.938;15.520;2022-10-17T02:34:28;21.90;;;10.48;;
70420;SDS011;57848;51.938;15.520;2022-10-17T02:36:58;18.60;;;9.68;;
70420;SDS011;57848;51.938;15.520;2022-10-17T02:39:26;19.77;;;10.90;;
70420;SDS011;57848;51.938;15.520;2022-10-17T02:41:55;20.23;;;10.75;;
70420;SDS011;57848;51.938;15.520;2022-10-17T02:44:23;22.05;;;10.88;;
70420;SDS011;57848;51.938;15.520;2022-10-17T02:47:00;19.65;;;10.55;;
70420;SDS011;57848;51.938;15.520;2022-10-17T02:49:33;21.15;;;11.77;;
70420;SDS011;57848;51.938;15.520;2022-10-17T02:52:16;20.50;;;10.93;;
70420;SDS011;57848;51.938;15.520;2022-10-17T02:54:52;19.02;;;10.77;;
70420;SDS011;57848;51.938;15.520;2022-10-17T02:57:27;20.83;;;10.82;;
70420;SDS011;57848;51.938;15.520;2022-10-17T03:00:06;22.77;;;11.27;;
70420;SDS011;57848;51.938;15.520;2022-10-17T03:02:41;21.58;;;11.23;;
70420;SDS011;57848;51.938;15.520;2022-10-17T03:05:08;23.10;;;12.73;;
70420;SDS011;57848;51.938;15.520;2022-10-17T03:07:36;21.95;;;12.23;;
70420;SDS011;57848;51.938;15.520;2022-10-17T03:10:01;23.83;;;12.37;;
70420;SDS011;57848;51.938;15.520;2022-10-17T03:12:28;23.55;;;11.80;;
70420;SDS011;57848;51.938;15.520;2022-10-17T03:14:53;20.60;;;12.43;;
70420;SDS011;57848;51.938;15.520;2022-10-17T03:17:19;22.40;;;11.95;;
70420;SDS011;57848;51.938;15.520;2022-10-17T03:19:44;22.40;;;12.60;;
70420;SDS011;57848;51.938;15.520;2022-10-17T03:22:09;22.30;;;11.97;;
70420;SDS011;57848;51.938;15.520;2022-10-17T03:24:36;24.88;;;12.82;;
70420;SDS011;57848;51.938;15.520;2022-10-17T03:27:02;26.17;;;13.90;;
70420;SDS011;57848;51.938;15.520;2022-10-17T03:29:27;26.35;;;13.68;;
70420;SDS011;57848;51.938;15.520;2022-10-17T03:31:53;24.13;;;13.00;;
70420;SDS011;57848;51.938;15.520;2022-10-17T03:34:18;23.93;;;13.47;;
70420;SDS011;57848;51.938;15.520;2022-10-17T03:36:44;25.43;;;13.83;;
70420;SDS011;57848;51.938;15.520;2022-10-17T03:39:10;23.40;;;12.70;;
70420;SDS011;57848;51.938;15.520;2022-10-17T03:41:36;25.58;;;13.15;;
70420;SDS011;57848;51.938;15.520;2022-10-17T03:44:01;26.27;;;14.70;;
70420;SDS011;57848;51.938;15.520;2022-10-17T03:46:27;30.13;;;14.82;;
70420;SDS011;57848;51.938;15.520;2022-10-17T03:48:54;30.37;;;14.57;;
70420;SDS011;57848;51.938;15.520;2022-10-17T03:51:19;25.90;;;14.30;;
70420;SDS011;57848;51.938;15.520;2022-10-17T03:53:49;23.90;;;14.07;;
70420;SDS011;57848;51.938;15.520;2022-10-17T03:56:16;25.30;;;14.88;;
70420;SDS011;57848;51.938;15.520;2022-10-17T03:58:49;28.83;;;14.93;;
70420;SDS011;57848;51.938;15.520;2022-10-17T04:01:15;24.40;;;13.60;;
70420;SDS011;57848;51.938;15.520;2022-10-17T04:03:43;26.80;;;14.75;;
70420;SDS011;57848;51.938;15.520;2022-10-17T04:06:13;25.63;;;15.30;;
70420;SDS011;57848;51.938;15.520;2022-10-17T04:08:41;26.25;;;14.77;;
70420;SDS011;57848;51.938;15.520;2022-10-17T04:11:15;30.07;;;15.53;;
70420;SDS011;57848;51.938;15.520;2022-10-17T04:13:43;27.60;;;15.38;;
70420;SDS011;57848;51.938;15.520;2022-10-17T04:16:12;29.55;;;15.60;;
70420;SDS011;57848;51.938;15.520;2022-10-17T04:18:50;24.13;;;14.50;;
70420;SDS011;57848;51.938;15.520;2022-10-17T04:21:18;27.63;;;15.27;;
70420;SDS011;57848;51.938;15.520;2022-10-17T04:23:43;29.25;;;16.75;;
70420;SDS011;57848;51.938;15.520;2022-10-17T04:26:21;29.77;;;16.10;;
70420;SDS011;57848;51.938;15.520;2022-10-17T04:28:46;29.58;;;15.35;;
70420;SDS011;57848;51.938;15.520;2022-10-17T04:31:12;28.87;;;16.10;;
70420;SDS011;57848;51.938;15.520;2022-10-17T04:33:58;28.70;;;16.38;;
70420;SDS011;57848;51.938;15.520;2022-10-17T04:36:24;29.60;;;16.53;;
70420;SDS011;57848;51.938;15.520;2022-10-17T04:38:49;29.50;;;16.60;;
70420;SDS011;57848;51.938;15.520;2022-10-17T04:41:16;30.07;;;16.00;;
70420;SDS011;57848;51.938;15.520;2022-10-17T04:43:42;32.25;;;17.73;;
70420;SDS011;57848;51.938;15.520;2022-10-17T04:46:09;30.87;;;15.57;;
70420;SDS011;57848;51.938;15.520;2022-10-17T04:48:37;31.85;;;16.27;;
70420;SDS011;57848;51.938;15.520;2022-10-17T04:51:04;30.90;;;17.60;;
70420;SDS011;57848;51.938;15.520;2022-10-17T04:53:42;31.70;;;16.80;;
70420;SDS011;57848;51.938;15.520;2022-10-17T04:56:09;30.25;;;17.20;;
70420;SDS011;57848;51.938;15.520;2022-10-17T04:58:39;35.90;;;18.85;;
70420;SDS011;57848;51.938;15.520;2022-10-17T05:01:07;40.42;;;19.05;;
70420;SDS011;57848;51.938;15.520;2022-10-17T05:03:34;34.40;;;19.42;;
70420;SDS011;57848;51.938;15.520;2022-10-17T05:06:04;35.43;;;19.00;;
70420;SDS011;57848;51.938;15.520;2022-10-17T05:08:43;39.08;;;19.45;;
70420;SDS011;57848;51.938;15.520;2022-10-17T05:11:20;34.00;;;18.58;;
70420;SDS011;57848;51.938;15.520;2022-10-17T05:13:51;36.53;;;19.45;;
70420;SDS011;57848;51.938;15.520;2022-10-17T05:16:22;35.07;;;19.07;;
70420;SDS011;57848;51.938;15.520;2022-10-17T05:18:52;35.55;;;20.10;;
70420;SDS011;57848;51.938;15.520;2022-10-17T05:21:19;31.48;;;18.33;;
70420;SDS011;57848;51.938;15.520;2022-10-17T05:23:46;32.92;;;18.27;;
70420;SDS011;57848;51.938;15.520;2022-10-17T05:26:12;35.60;;;19.23;;
70420;SDS011;57848;51.938;15.520;2022-10-17T05:28:38;39.20;;;20.13;;
70420;SDS011;57848;51.938;15.520;2022-10-17T05:31:04;34.85;;;17.75;;
70420;SDS011;57848;51.938;15.520;2022-10-17T05:33:30;36.27;;;18.43;;
70420;SDS011;57848;51.938;15.520;2022-10-17T05:35:56;32.45;;;17.08;;
70420;SDS011;57848;51.938;15.520;2022-10-17T05:38:22;38.05;;;17.98;;
70420;SDS011;57848;51.938;15.520;2022-10-17T05:40:48;36.10;;;18.37;;
70420;SDS011;57848;51.938;15.520;2022-10-17T05:43:14;34.53;;;19.38;;
70420;SDS011;57848;51.938;15.520;2022-10-17T05:45:40;35.28;;;19.52;;
70420;SDS011;57848;51.938;15.520;2022-10-17T05:48:10;37.93;;;19.77;;
70420;SDS011;57848;51.938;15.520;2022-10-17T05:50:35;37.72;;;19.55;;
70420;SDS011;57848;51.938;15.520;2022-10-17T05:53:06;31.73;;;19.30;;
70420;SDS011;57848;51.938;15.520;2022-10-17T05:55:36;36.20;;;20.33;;
70420;SDS011;57848;51.938;15.520;2022-10-17T05:58:02;38.53;;;19.27;;
70420;SDS011;57848;51.938;15.520;2022-10-17T06:00:33;36.22;;;19.17;;
70420;SDS011;57848;51.938;15.520;2022-10-17T06:02:58;35.10;;;17.70;;
70420;SDS011;57848;51.938;15.520;2022-10-17T06:05:24;34.07;;;18.53;;
70420;SDS011;57848;51.938;15.520;2022-10-17T06:07:49;30.47;;;17.30;;
70420;SDS011;57848;51.938;15.520;2022-10-17T06:10:17;35.97;;;17.95;;
70420;SDS011;57848;51.938;15.520;2022-10-17T06:12:43;30.10;;;17.30;;
70420;SDS011;57848;51.938;15.520;2022-10-17T06:15:09;32.43;;;18.33;;
70420;SDS011;57848;51.938;15.520;2022-10-17T06:17:37;30.77;;;18.35;;
70420;SDS011;57848;51.938;15.520;2022-10-17T06:20:02;33.70;;;17.27;;
70420;SDS011;57848;51.938;15.520;2022-10-17T06:22:28;33.67;;;17.95;;
70420;SDS011;57848;51.938;15.520;2022-10-17T06:24:54;32.03;;;17.13;;
70420;SDS011;57848;51.938;15.520;2022-10-17T06:27:21;30.15;;;16.65;;
70420;SDS011;57848;51.938;15.520;2022-10-17T06:29:46;28.87;;;17.47;;
70420;SDS011;57848;51.938;15.520;2022-10-17T06:32:12;29.77;;;16.03;;
70420;SDS011;57848;51.938;15.520;2022-10-17T06:34:39;26.75;;;15.57;;
70420;SDS011;57848;51.938;15.520;2022-10-17T06:37:04;30.70;;;16.47;;
70420;SDS011;57848;51.938;15.520;2022-10-17T06:39:30;31.75;;;17.25;;
70420;SDS011;57848;51.938;15.520;2022-10-17T06:42:19;33.08;;;17.80;;
70420;SDS011;57848;51.938;15.520;2022-10-17T06:45:01;37.90;;;19.45;;
70420;SDS011;57848;51.938;15.520;2022-10-17T06:47:45;34.17;;;19.05;;
70420;SDS011;57848;51.938;15.520;2022-10-17T06:50:26;39.00;;;20.33;;
70420;SDS011;57848;51.938;15.520;2022-10-17T06:53:11;37.72;;;20.00;;
70420;SDS011;57848;51.938;15.520;2022-10-17T06:55:51;35.45;;;20.00;;
70420;SDS011;57848;51.938;15.520;2022-10-17T06:58:53;35.15;;;18.70;;
70420;SDS011;57848;51.938;15.520;2022-10-17T07:01:32;29.00;;;16.95;;
70420;SDS011;57848;51.938;15.520;2022-10-17T07:03:59;26.73;;;15.13;;
70420;SDS011;57848;51.938;15.520;2022-10-17T07:06:24;22.55;;;12.93;;
70420;SDS011;57848;51.938;15.520;2022-10-17T07:08:52;22.63;;;13.75;;
70420;SDS011;57848;51.938;15.520;2022-10-17T07:11:20;26.83;;;15.75;;
70420;SDS011;57848;51.938;15.520;2022-10-17T07:13:48;34.07;;;18.53;;
70420;SDS011;57848;51.938;15.520;2022-10-17T07:16:14;30.10;;;17.30;;
70420;SDS011;57848;51.938;15.520;2022-10-17T07:18:42;28.83;;;17.83;;
70420;SDS011;57848;51.938;15.520;2022-10-17T07:21:08;31.55;;;17.45;;
70420;SDS011;57848;51.938;15.520;2022-10-17T07:23:37;31.33;;;15.60;;
70420;SDS011;57848;51.938;15.520;2022-10-17T07:26:05;28.85;;;17.25;;
70420;SDS011;57848;51.938;15.520;2022-10-17T07:28:36;30.30;;;16.55;;
70420;SDS011;57848;51.938;15.520;2022-10-17T07:31:14;25.87;;;15.40;;
70420;SDS011;57848;51.938;15.520;2022-10-17T07:33:41;25.77;;;15.18;;
70420;SDS011;57848;51.938;15.520;2022-10-17T07:36:08;26.73;;;16.15;;
70420;SDS011;57848;51.938;15.520;2022-10-17T07:38:33;30.77;;;17.23;;
70420;SDS011;57848;51.938;15.520;2022-10-17T07:41:00;27.10;;;15.80;;
70420;SDS011;57848;51.938;15.520;2022-10-17T07:43:27;23.57;;;14.17;;
70420;SDS011;57848;51.938;15.520;2022-10-17T07:45:53;23.17;;;13.85;;
70420;SDS011;57848;51.938;15.520;2022-10-17T07:48:19;22.73;;;13.50;;
70420;SDS011;57848;51.938;15.520;2022-10-17T07:50:46;26.02;;;14.23;;
70420;SDS011;57848;51.938;15.520;2022-10-17T07:53:11;23.17;;;13.97;;
70420;SDS011;57848;51.938;15.520;2022-10-17T07:55:37;21.90;;;12.97;;
70420;SDS011;57848;51.938;15.520;2022-10-17T07:58:02;21.80;;;12.93;;
70420;SDS011;57848;51.938;15.520;2022-10-17T08:00:28;22.50;;;13.03;;
70420;SDS011;57848;51.938;15.520;2022-10-17T08:02:53;20.13;;;12.47;;
70420;SDS011;57848;51.938;15.520;2022-10-17T08:05:18;21.90;;;11.93;;
70420;SDS011;57848;51.938;15.520;2022-10-17T08:07:44;23.10;;;11.90;;
70420;SDS011;57848;51.938;15.520;2022-10-17T08:10:12;20.87;;;12.40;;
70420;SDS011;57848;51.938;15.520;2022-10-17T08:12:39;23.92;;;12.27;;
70420;SDS011;57848;51.938;15.520;2022-10-17T08:15:05;21.63;;;12.05;;
70420;SDS011;57848;51.938;15.520;2022-10-17T08:17:32;19.07;;;10.67;;
70420;SDS011;57848;51.938;15.520;2022-10-17T08:19:58;16.85;;;9.95;;
70420;SDS011;57848;51.938;15.520;2022-10-17T08:22:23;20.77;;;11.07;;
70420;SDS011;57848;51.938;15.520;2022-10-17T08:24:49;20.73;;;11.43;;
70420;SDS011;57848;51.938;15.520;2022-10-17T08:27:14;18.92;;;10.85;;
70420;SDS011;57848;51.938;15.520;2022-10-17T08:29:45;21.33;;;11.10;;
70420;SDS011;57848;51.938;15.520;2022-10-17T08:32:12;17.92;;;10.40;;
70420;SDS011;57848;51.938;15.520;2022-10-17T08:34:38;20.47;;;11.47;;
70420;SDS011;57848;51.938;15.520;2022-10-17T08:37:03;17.35;;;9.80;;
70420;SDS011;57848;51.938;15.520;2022-10-17T08:39:28;16.97;;;9.97;;
70420;SDS011;57848;51.938;15.520;2022-10-17T08:47:59;19.17;;;10.07;;
70420;SDS011;57848;51.938;15.520;2022-10-17T08:50:31;19.02;;;10.80;;
70420;SDS011;57848;51.938;15.520;2022-10-17T08:53:23;18.20;;;10.13;;
70420;SDS011;57848;51.938;15.520;2022-10-17T08:55:50;19.15;;;9.98;;
70420;SDS011;57848;51.938;15.520;2022-10-17T08:58:28;17.33;;;9.60;;
70420;SDS011;57848;51.938;15.520;2022-10-17T09:01:18;16.63;;;9.60;;
70420;SDS011;57848;51.938;15.520;2022-10-17T09:07:05;18.83;;;9.15;;
70420;SDS011;57848;51.938;15.520;2022-10-17T09:12:26;18.75;;;9.80;;
70420;SDS011;57848;51.938;15.520;2022-10-17T09:15:02;17.93;;;9.53;;
70420;SDS011;57848;51.938;15.520;2022-10-17T09:18:06;18.42;;;9.45;;
70420;SDS011;57848;51.938;15.520;2022-10-17T09:20:39;16.75;;;9.32;;
70420;SDS011;57848;51.938;15.520;2022-10-17T09:23:14;17.50;;;9.52;;
70420;SDS011;57848;51.938;15.520;2022-10-17T09:25:43;17.05;;;8.95;;
70420;SDS011;57848;51.938;15.520;2022-10-17T09:33:27;16.63;;;8.45;;
70420;SDS011;57848;51.938;15.520;2022-10-17T09:38:47;15.88;;;9.05;;
70420;SDS011;57848;51.938;15.520;2022-10-17T09:41:17;15.80;;;8.50;;
70420;SDS011;57848;51.938;15.520;2022-10-17T09:43:45;19.20;;;9.20;;
70420;SDS011;57848;51.938;15.520;2022-10-17T09:46:21;16.77;;;9.32;;
70420;SDS011;57848;51.938;15.520;2022-10-17T09:48:54;14.85;;;8.95;;
70420;SDS011;57848;51.938;15.520;2022-10-17T09:51:25;17.58;;;9.30;;
70420;SDS011;57848;51.938;15.520;2022-10-17T09:53:55;14.60;;;8.57;;
70420;SDS011;57848;51.938;15.520;2022-10-17T09:56:26;16.10;;;8.70;;
70420;SDS011;57848;51.938;15.520;2022-10-17T09:58:54;13.67;;;7.93;;
70420;SDS011;57848;51.938;15.520;2022-10-17T10:01:22;17.52;;;7.57;;
70420;SDS011;57848;51.938;15.520;2022-10-17T10:04:10;13.45;;;6.93;;
70420;SDS011;57848;51.938;15.520;2022-10-17T10:06:39;11.30;;;6.87;;
70420;SDS011;57848;51.938;15.520;2022-10-17T10:09:05;15.80;;;7.13;;
70420;SDS011;57848;51.938;15.520;2022-10-17T10:11:51;13.82;;;8.00;;
70420;SDS011;57848;51.938;15.520;2022-10-17T10:14:20;14.75;;;7.72;;
70420;SDS011;57848;51.938;15.520;2022-10-17T10:16:54;12.77;;;7.40;;
70420;SDS011;57848;51.938;15.520;2022-10-17T10:19:33;12.60;;;7.07;;
70420;SDS011;57848;51.938;15.520;2022-10-17T10:22:00;14.38;;;7.63;;
70420;SDS011;57848;51.938;15.520;2022-10-17T10:24:28;13.90;;;6.88;;
70420;SDS011;57848;51.938;15.520;2022-10-17T10:26:55;11.55;;;7.20;;
70420;SDS011;57848;51.938;15.520;2022-10-17T10:29:30;12.57;;;6.28;;
70420;SDS011;57848;51.938;15.520;2022-10-17T10:34:34;12.95;;;7.07;;
70420;SDS011;57848;51.938;15.520;2022-10-17T10:37:02;11.73;;;6.72;;
70420;SDS011;57848;51.938;15.520;2022-10-17T10:42:28;13.13;;;7.20;;
70420;SDS011;57848;51.938;15.520;2022-10-17T10:45:03;14.10;;;6.90;;
70420;SDS011;57848;51.938;15.520;2022-10-17T10:47:39;11.40;;;6.47;;
70420;SDS011;57848;51.938;15.520;2022-10-17T10:56:28;12.68;;;7.13;;
70420;SDS011;57848;51.938;15.520;2022-10-17T11:01:41;12.32;;;7.78;;
70420;SDS011;57848;51.938;15.520;2022-10-17T11:07:15;12.40;;;7.65;;
70420;SDS011;57848;51.938;15.520;2022-10-17T11:09:50;11.60;;;7.13;;
70420;SDS011;57848;51.938;15.520;2022-10-17T11:12:22;14.63;;;7.57;;
70420;SDS011;57848;51.938;15.520;2022-10-17T11:22:48;13.48;;;8.25;;
70420;SDS011;57848;51.938;15.520;2022-10-17T11:25:35;15.57;;;8.30;;
70420;SDS011;57848;51.938;15.520;2022-10-17T11:28:03;13.68;;;9.07;;
70420;SDS011;57848;51.938;15.520;2022-10-17T11:33:23;14.88;;;8.70;;
70420;SDS011;57848;51.938;15.520;2022-10-17T11:35:53;13.27;;;8.70;;
70420;SDS011;57848;51.938;15.520;2022-10-17T11:41:19;13.40;;;8.27;;
70420;SDS011;57848;51.938;15.520;2022-10-17T11:43:53;14.52;;;8.38;;
70420;SDS011;57848;51.938;15.520;2022-10-17T11:46:24;13.73;;;8.52;;
70420;SDS011;57848;51.938;15.520;2022-10-17T11:49:03;15.50;;;9.60;;
70420;SDS011;57848;51.938;15.520;2022-10-17T11:51:37;12.57;;;8.17;;
70420;SDS011;57848;51.938;15.520;2022-10-17T11:54:13;12.73;;;8.45;;
70420;SDS011;57848;51.938;15.520;2022-10-17T11:56:48;14.23;;;8.80;;
70420;SDS011;57848;51.938;15.520;2022-10-17T12:02:13;14.38;;;8.43;;
70420;SDS011;57848;51.938;15.520;2022-10-17T12:04:51;13.03;;;8.50;;
70420;SDS011;57848;51.938;15.520;2022-10-17T12:15:53;11.98;;;8.45;;
70420;SDS011;57848;51.938;15.520;2022-10-17T12:18:19;13.93;;;8.33;;
70420;SDS011;57848;51.938;15.520;2022-10-17T12:20:56;14.35;;;8.60;;
70420;SDS011;57848;51.938;15.520;2022-10-17T12:23:24;16.20;;;8.70;;
70420;SDS011;57848;51.938;15.520;2022-10-17T12:25:52;16.42;;;8.80;;
70420;SDS011;57848;51.938;15.520;2022-10-17T12:46:49;13.02;;;8.38;;
70420;SDS011;57848;51.938;15.520;2022-10-17T12:49:39;16.90;;;8.25;;
70420;SDS011;57848;51.938;15.520;2022-10-17T12:52:18;13.82;;;7.82;;
70420;SDS011;57848;51.938;15.520;2022-10-17T12:54:57;15.73;;;7.82;;
70420;SDS011;57848;51.938;15.520;2022-10-17T13:00:13;12.82;;;7.18;;
70420;SDS011;57848;51.938;15.520;2022-10-17T13:02:44;14.57;;;8.50;;
70420;SDS011;57848;51.938;15.520;2022-10-17T13:05:13;13.18;;;7.65;;
70420;SDS011;57848;51.938;15.520;2022-10-17T13:07:43;13.13;;;7.63;;
70420;SDS011;57848;51.938;15.520;2022-10-17T13:10:19;14.93;;;7.63;;
70420;SDS011;57848;51.938;15.520;2022-10-17T13:12:47;14.23;;;7.75;;
70420;SDS011;57848;51.938;15.520;2022-10-17T13:15:15;14.32;;;8.35;;
70420;SDS011;57848;51.938;15.520;2022-10-17T13:17:43;21.10;;;8.23;;
70420;SDS011;57848;51.938;15.520;2022-10-17T13:20:21;13.33;;;7.17;;
70420;SDS011;57848;51.938;15.520;2022-10-17T13:22:49;17.70;;;8.05;;
70420;SDS011;57848;51.938;15.520;2022-10-17T13:25:19;12.52;;;7.40;;
70420;SDS011;57848;51.938;15.520;2022-10-17T13:27:45;14.63;;;7.40;;
70420;SDS011;57848;51.938;15.520;2022-10-17T13:30:27;14.47;;;7.70;;
70420;SDS011;57848;51.938;15.520;2022-10-17T13:32:59;14.75;;;7.95;;
70420;SDS011;57848;51.938;15.520;2022-10-17T13:35:27;14.85;;;7.90;;
70420;SDS011;57848;51.938;15.520;2022-10-17T13:37:55;17.73;;;7.43;;
70420;SDS011;57848;51.938;15.520;2022-10-17T13:40:23;11.63;;;6.67;;
70420;SDS011;57848;51.938;15.520;2022-10-17T13:42:52;13.38;;;6.95;;
70420;SDS011;57848;51.938;15.520;2022-10-17T13:45:23;12.98;;;7.22;;
70420;SDS011;57848;51.938;15.520;2022-10-17T13:47:55;11.65;;;6.80;;
70420;SDS011;57848;51.938;15.520;2022-10-17T13:50:26;11.77;;;6.80;;
70420;SDS011;57848;51.938;15.520;2022-10-17T13:55:55;14.75;;;7.13;;
70420;SDS011;57848;51.938;15.520;2022-10-17T13:58:39;13.23;;;7.25;;
70420;SDS011;57848;51.938;15.520;2022-10-17T14:01:10;13.07;;;6.22;;
70420;SDS011;57848;51.938;15.520;2022-10-17T14:03:36;12.95;;;6.55;;
70420;SDS011;57848;51.938;15.520;2022-10-17T14:06:05;14.47;;;7.00;;
70420;SDS011;57848;51.938;15.520;2022-10-17T14:08:31;14.68;;;6.63;;
70420;SDS011;57848;51.938;15.520;2022-10-17T14:10:58;14.13;;;7.05;;
70420;SDS011;57848;51.938;15.520;2022-10-17T14:13:25;13.18;;;6.35;;
70420;SDS011;57848;51.938;15.520;2022-10-17T14:15:54;12.90;;;6.60;;
70420;SDS011;57848;51.938;15.520;2022-10-17T14:18:24;12.83;;;6.60;;
70420;SDS011;57848;51.938;15.520;2022-10-17T14:20:52;12.05;;;6.43;;
70420;SDS011;57848;51.938;15.520;2022-10-17T14:23:37;11.50;;;6.45;;
70420;SDS011;57848;51.938;15.520;2022-10-17T14:26:09;15.02;;;6.70;;
70420;SDS011;57848;51.938;15.520;2022-10-17T14:28:37;12.10;;;6.28;;
70420;SDS011;57848;51.938;15.520;2022-10-17T14:33:43;12.27;;;7.05;;
70420;SDS011;57848;51.938;15.520;2022-10-17T14:36:10;13.48;;;6.65;;
70420;SDS011;57848;51.938;15.520;2022-10-17T14:38:36;14.03;;;7.10;;
70420;SDS011;57848;51.938;15.520;2022-10-17T14:41:05;13.68;;;6.45;;
70420;SDS011;57848;51.938;15.520;2022-10-17T14:43:37;13.30;;;6.57;;
70420;SDS011;57848;51.938;15.520;2022-10-17T14:46:03;13.30;;;6.67;;
70420;SDS011;57848;51.938;15.520;2022-10-17T14:48:29;14.50;;;6.88;;
70420;SDS011;57848;51.938;15.520;2022-10-17T14:51:16;13.00;;;6.95;;
70420;SDS011;57848;51.938;15.520;2022-10-17T14:53:43;12.27;;;6.90;;
70420;SDS011;57848;51.938;15.520;2022-10-17T14:56:24;15.52;;;7.95;;
70420;SDS011;57848;51.938;15.520;2022-10-17T14:58:51;14.75;;;8.38;;
70420;SDS011;57848;51.938;15.520;2022-10-17T15:01:16;15.05;;;8.32;;
70420;SDS011;57848;51.938;15.520;2022-10-17T15:03:42;18.27;;;9.43;;
70420;SDS011;57848;51.938;15.520;2022-10-17T15:06:18;18.58;;;9.35;;
70420;SDS011;57848;51.938;15.520;2022-10-17T15:08:45;17.83;;;9.98;;
70420;SDS011;57848;51.938;15.520;2022-10-17T15:11:10;20.00;;;9.80;;
70420;SDS011;57848;51.938;15.520;2022-10-17T15:13:35;20.43;;;10.50;;
70420;SDS011;57848;51.938;15.520;2022-10-17T15:16:01;18.50;;;10.43;;
70420;SDS011;57848;51.938;15.520;2022-10-17T15:18:26;20.43;;;10.00;;
70420;SDS011;57848;51.938;15.520;2022-10-17T15:20:51;20.60;;;10.50;;
70420;SDS011;57848;51.938;15.520;2022-10-17T15:23:17;22.90;;;10.63;;
70420;SDS011;57848;51.938;15.520;2022-10-17T15:25:42;16.00;;;9.05;;
70420;SDS011;57848;51.938;15.520;2022-10-17T15:28:08;19.67;;;8.97;;
70420;SDS011;57848;51.938;15.520;2022-10-17T15:30:36;16.93;;;8.20;;
70420;SDS011;57848;51.938;15.520;2022-10-17T15:33:02;19.50;;;9.60;;
70420;SDS011;57848;51.938;15.520;2022-10-17T15:35:27;21.40;;;12.07;;
70420;SDS011;57848;51.938;15.520;2022-10-17T15:37:53;25.27;;;12.90;;
70420;SDS011;57848;51.938;15.520;2022-10-17T15:40:23;21.48;;;12.20;;
70420;SDS011;57848;51.938;15.520;2022-10-17T15:42:50;31.02;;;13.23;;
70420;SDS011;57848;51.938;15.520;2022-10-17T15:45:16;30.37;;;16.03;;
70420;SDS011;57848;51.938;15.520;2022-10-17T15:47:47;30.10;;;15.27;;
70420;SDS011;57848;51.938;15.520;2022-10-17T15:50:16;31.30;;;15.50;;
70420;SDS011;57848;51.938;15.520;2022-10-17T15:52:42;25.07;;;13.83;;
70420;SDS011;57848;51.938;15.520;2022-10-17T15:55:08;25.00;;;14.10;;
70420;SDS011;57848;51.938;15.520;2022-10-17T15:57:35;24.90;;;12.88;;
70420;SDS011;57848;51.938;15.520;2022-10-17T16:00:04;29.90;;;13.30;;
70420;SDS011;57848;51.938;15.520;2022-10-17T16:02:39;27.00;;;13.57;;
70420;SDS011;57848;51.938;15.520;2022-10-17T16:05:09;27.63;;;14.60;;
70420;SDS011;57848;51.938;15.520;2022-10-17T16:07:40;25.88;;;13.80;;
70420;SDS011;57848;51.938;15.520;2022-10-17T16:10:06;28.33;;;13.90;;
70420;SDS011;57848;51.938;15.520;2022-10-17T16:12:33;28.42;;;13.77;;
70420;SDS011;57848;51.938;15.520;2022-10-17T16:15:05;23.15;;;12.52;;
70420;SDS011;57848;51.938;15.520;2022-10-17T16:17:32;24.20;;;13.20;;
70420;SDS011;57848;51.938;15.520;2022-10-17T16:19:58;26.53;;;12.90;;